sensor_id;sensor_type;location;lat;lon;timestamp;P1;durP1;ratioP1;P2;durP2;ratioP2
18677;SDS011;9469;51.114;13.914;2023-08-24T00:00:14;8.63;;;5.67;;
18677;SDS011;9469;51.114;13.914;2023-08-24T00:05:20;5.83;;;5.23;;
18677;SDS011;9469;51.114;13.914;2023-08-24T00:10:28;7.90;;;5.20;;
18677;SDS011;9469;51.114;13.914;2023-08-24T00:15:40;5.83;;;5.13;;
18677;SDS011;9469;51.114;13.914;2023-08-24T00:20:46;7.27;;;5.83;;
18677;SDS011;9469;51.114;13.914;2023-08-24T00:25:53;8.50;;;5.87;;
18677;SDS011;9469;51.114;13.914;2023-08-24T00:31:01;8.43;;;5.37;;
18677;SDS011;9469;51.114;13.914;2023-08-24T00:36:08;8.37;;;6.17;;
18677;SDS011;9469;51.114;13.914;2023-08-24T00:41:14;8.43;;;6.37;;
18677;SDS011;9469;51.114;13.914;2023-08-24T00:46:26;6.50;;;5.63;;
18677;SDS011;9469;51.114;13.914;2023-08-24T00:51:32;6.83;;;6.03;;
18677;SDS011;9469;51.114;13.914;2023-08-24T00:56:39;6.43;;;5.83;;
18677;SDS011;9469;51.114;13.914;2023-08-24T01:01:48;8.07;;;5.87;;
18677;SDS011;9469;51.114;13.914;2023-08-24T01:06:56;8.23;;;5.67;;
18677;SDS011;9469;51.114;13.914;2023-08-24T01:12:02;6.00;;;5.37;;
18677;SDS011;9469;51.114;13.914;2023-08-24T01:17:19;8.97;;;5.60;;
18677;SDS011;9469;51.114;13.914;2023-08-24T01:22:33;9.50;;;5.30;;
18677;SDS011;9469;51.114;13.914;2023-08-24T01:27:45;5.87;;;5.27;;
18677;SDS011;9469;51.114;13.914;2023-08-24T01:32:55;7.57;;;5.90;;
18677;SDS011;9469;51.114;13.914;2023-08-24T01:38:02;7.80;;;6.27;;
18677;SDS011;9469;51.114;13.914;2023-08-24T01:43:11;9.10;;;5.60;;
18677;SDS011;9469;51.114;13.914;2023-08-24T01:48:33;5.97;;;5.37;;
18677;SDS011;9469;51.114;13.914;2023-08-24T01:53:39;6.10;;;5.50;;
18677;SDS011;9469;51.114;13.914;2023-08-24T01:58:49;7.07;;;5.40;;
18677;SDS011;9469;51.114;13.914;2023-08-24T02:03:54;14.57;;;5.83;;
18677;SDS011;9469;51.114;13.914;2023-08-24T02:09:02;6.57;;;5.97;;
18677;SDS011;9469;51.114;13.914;2023-08-24T02:14:10;8.80;;;6.30;;
18677;SDS011;9469;51.114;13.914;2023-08-24T02:19:18;6.17;;;5.57;;
18677;SDS011;9469;51.114;13.914;2023-08-24T02:24:23;7.33;;;6.63;;
18677;SDS011;9469;51.114;13.914;2023-08-24T02:29:31;7.67;;;5.70;;
18677;SDS011;9469;51.114;13.914;2023-08-24T02:34:36;7.77;;;5.83;;
18677;SDS011;9469;51.114;13.914;2023-08-24T02:39:42;8.50;;;7.30;;
18677;SDS011;9469;51.114;13.914;2023-08-24T02:44:50;6.60;;;5.97;;
18677;SDS011;9469;51.114;13.914;2023-08-24T02:49:55;6.87;;;5.67;;
18677;SDS011;9469;51.114;13.914;2023-08-24T02:55:00;7.97;;;5.70;;
18677;SDS011;9469;51.114;13.914;2023-08-24T03:00:11;7.50;;;6.30;;
18677;SDS011;9469;51.114;13.914;2023-08-24T03:05:21;8.20;;;6.70;;
18677;SDS011;9469;51.114;13.914;2023-08-24T03:10:26;8.07;;;6.70;;
18677;SDS011;9469;51.114;13.914;2023-08-24T03:15:34;9.90;;;6.67;;
18677;SDS011;9469;51.114;13.914;2023-08-24T03:20:40;7.70;;;6.40;;
18677;SDS011;9469;51.114;13.914;2023-08-24T03:25:48;11.07;;;6.47;;
18677;SDS011;9469;51.114;13.914;2023-08-24T03:30:57;7.20;;;6.50;;
18677;SDS011;9469;51.114;13.914;2023-08-24T03:36:03;7.90;;;6.90;;
18677;SDS011;9469;51.114;13.914;2023-08-24T03:41:09;6.90;;;6.17;;
18677;SDS011;9469;51.114;13.914;2023-08-24T03:46:16;10.37;;;6.90;;
18677;SDS011;9469;51.114;13.914;2023-08-24T03:51:22;10.73;;;7.00;;
18677;SDS011;9469;51.114;13.914;2023-08-24T03:56:27;9.93;;;6.93;;
18677;SDS011;9469;51.114;13.914;2023-08-24T04:01:35;8.30;;;7.03;;
18677;SDS011;9469;51.114;13.914;2023-08-24T04:06:41;10.47;;;7.30;;
18677;SDS011;9469;51.114;13.914;2023-08-24T04:11:46;10.13;;;7.30;;
18677;SDS011;9469;51.114;13.914;2023-08-24T04:16:54;8.30;;;6.90;;
18677;SDS011;9469;51.114;13.914;2023-08-24T04:22:01;8.40;;;7.20;;
18677;SDS011;9469;51.114;13.914;2023-08-24T04:27:07;9.00;;;7.70;;
18677;SDS011;9469;51.114;13.914;2023-08-24T04:32:15;8.20;;;6.73;;
18677;SDS011;9469;51.114;13.914;2023-08-24T04:37:20;7.70;;;6.43;;
18677;SDS011;9469;51.114;13.914;2023-08-24T04:42:26;7.63;;;5.10;;
18677;SDS011;9469;51.114;13.914;2023-08-24T04:47:34;7.57;;;6.10;;
18677;SDS011;9469;51.114;13.914;2023-08-24T04:52:39;8.60;;;6.03;;
18677;SDS011;9469;51.114;13.914;2023-08-24T04:57:51;11.87;;;6.10;;
18677;SDS011;9469;51.114;13.914;2023-08-24T05:03:00;11.17;;;5.00;;
18677;SDS011;9469;51.114;13.914;2023-08-24T05:08:05;5.30;;;4.80;;
18677;SDS011;9469;51.114;13.914;2023-08-24T05:13:15;9.10;;;4.17;;
18677;SDS011;9469;51.114;13.914;2023-08-24T05:18:24;4.53;;;4.13;;
18677;SDS011;9469;51.114;13.914;2023-08-24T05:23:30;6.33;;;4.80;;
18677;SDS011;9469;51.114;13.914;2023-08-24T05:28:35;6.13;;;4.30;;
18677;SDS011;9469;51.114;13.914;2023-08-24T05:33:46;6.50;;;4.40;;
18677;SDS011;9469;51.114;13.914;2023-08-24T05:38:54;4.50;;;3.60;;
18677;SDS011;9469;51.114;13.914;2023-08-24T05:44:07;7.07;;;4.07;;
18677;SDS011;9469;51.114;13.914;2023-08-24T05:49:15;8.77;;;4.07;;
18677;SDS011;9469;51.114;13.914;2023-08-24T05:54:26;7.50;;;3.87;;
18677;SDS011;9469;51.114;13.914;2023-08-24T05:59:31;5.80;;;3.60;;
18677;SDS011;9469;51.114;13.914;2023-08-24T06:04:41;5.10;;;3.27;;
18677;SDS011;9469;51.114;13.914;2023-08-24T06:09:46;7.13;;;3.87;;
18677;SDS011;9469;51.114;13.914;2023-08-24T06:14:51;8.90;;;3.50;;
18677;SDS011;9469;51.114;13.914;2023-08-24T06:20:00;4.05;;;3.40;;
18677;SDS011;9469;51.114;13.914;2023-08-24T06:25:11;7.75;;;3.80;;
18677;SDS011;9469;51.114;13.914;2023-08-24T06:30:16;4.05;;;2.90;;
18677;SDS011;9469;51.114;13.914;2023-08-24T06:35:24;6.18;;;3.00;;
18677;SDS011;9469;51.114;13.914;2023-08-24T06:40:33;8.15;;;3.55;;
18677;SDS011;9469;51.114;13.914;2023-08-24T06:45:41;5.88;;;3.15;;
18677;SDS011;9469;51.114;13.914;2023-08-24T06:50:49;3.78;;;2.83;;
18677;SDS011;9469;51.114;13.914;2023-08-24T06:55:54;3.13;;;2.50;;
18677;SDS011;9469;51.114;13.914;2023-08-24T07:01:00;6.25;;;2.75;;
18677;SDS011;9469;51.114;13.914;2023-08-24T07:06:10;5.53;;;3.13;;
18677;SDS011;9469;51.114;13.914;2023-08-24T07:11:16;10.00;;;3.17;;
18677;SDS011;9469;51.114;13.914;2023-08-24T07:16:22;5.38;;;3.13;;
18677;SDS011;9469;51.114;13.914;2023-08-24T07:21:30;3.42;;;2.45;;
18677;SDS011;9469;51.114;13.914;2023-08-24T07:26:36;3.67;;;2.75;;
18677;SDS011;9469;51.114;13.914;2023-08-24T07:31:42;5.15;;;2.80;;
18677;SDS011;9469;51.114;13.914;2023-08-24T07:36:52;4.45;;;2.58;;
18677;SDS011;9469;51.114;13.914;2023-08-24T07:42:01;4.03;;;2.92;;
18677;SDS011;9469;51.114;13.914;2023-08-24T07:47:07;6.22;;;2.83;;
18677;SDS011;9469;51.114;13.914;2023-08-24T07:52:14;6.40;;;2.78;;
18677;SDS011;9469;51.114;13.914;2023-08-24T07:57:20;3.40;;;2.97;;
18677;SDS011;9469;51.114;13.914;2023-08-24T08:02:28;4.68;;;2.58;;
18677;SDS011;9469;51.114;13.914;2023-08-24T08:07:37;7.78;;;2.75;;
18677;SDS011;9469;51.114;13.914;2023-08-24T08:12:42;4.45;;;2.63;;
18677;SDS011;9469;51.114;13.914;2023-08-24T08:17:50;6.82;;;2.08;;
18677;SDS011;9469;51.114;13.914;2023-08-24T08:22:59;5.90;;;2.63;;
18677;SDS011;9469;51.114;13.914;2023-08-24T08:28:06;5.13;;;1.98;;
18677;SDS011;9469;51.114;13.914;2023-08-24T08:33:13;4.25;;;2.38;;
18677;SDS011;9469;51.114;13.914;2023-08-24T08:38:21;2.83;;;2.22;;
18677;SDS011;9469;51.114;13.914;2023-08-24T08:43:27;4.50;;;2.22;;
18677;SDS011;9469;51.114;13.914;2023-08-24T08:48:33;4.25;;;2.78;;
18677;SDS011;9469;51.114;13.914;2023-08-24T08:53:43;9.55;;;2.80;;
18677;SDS011;9469;51.114;13.914;2023-08-24T08:58:54;8.57;;;2.70;;
18677;SDS011;9469;51.114;13.914;2023-08-24T09:04:04;3.47;;;2.47;;
18677;SDS011;9469;51.114;13.914;2023-08-24T09:09:15;4.70;;;3.22;;
18677;SDS011;9469;51.114;13.914;2023-08-24T09:14:26;4.00;;;2.75;;
18677;SDS011;9469;51.114;13.914;2023-08-24T09:19:32;3.35;;;2.00;;
18677;SDS011;9469;51.114;13.914;2023-08-24T09:24:43;5.25;;;2.92;;
18677;SDS011;9469;51.114;13.914;2023-08-24T09:29:50;2.88;;;2.15;;
18677;SDS011;9469;51.114;13.914;2023-08-24T09:34:57;3.05;;;2.28;;
18677;SDS011;9469;51.114;13.914;2023-08-24T09:40:12;4.15;;;2.00;;
18677;SDS011;9469;51.114;13.914;2023-08-24T09:45:19;5.63;;;2.10;;
18677;SDS011;9469;51.114;13.914;2023-08-24T09:50:28;3.20;;;1.83;;
18677;SDS011;9469;51.114;13.914;2023-08-24T09:55:42;5.15;;;2.28;;
18677;SDS011;9469;51.114;13.914;2023-08-24T10:00:54;5.78;;;1.95;;
18677;SDS011;9469;51.114;13.914;2023-08-24T10:06:00;4.00;;;2.00;;
18677;SDS011;9469;51.114;13.914;2023-08-24T10:11:12;2.38;;;1.83;;
18677;SDS011;9469;51.114;13.914;2023-08-24T10:16:24;3.38;;;2.08;;
18677;SDS011;9469;51.114;13.914;2023-08-24T10:21:32;4.32;;;2.15;;
18677;SDS011;9469;51.114;13.914;2023-08-24T10:26:42;4.28;;;2.13;;
18677;SDS011;9469;51.114;13.914;2023-08-24T10:31:52;3.30;;;1.90;;
18677;SDS011;9469;51.114;13.914;2023-08-24T10:37:06;2.25;;;1.90;;
18677;SDS011;9469;51.114;13.914;2023-08-24T10:42:17;3.90;;;2.10;;
18677;SDS011;9469;51.114;13.914;2023-08-24T10:47:23;4.72;;;2.20;;
18677;SDS011;9469;51.114;13.914;2023-08-24T10:52:31;5.15;;;2.30;;
18677;SDS011;9469;51.114;13.914;2023-08-24T10:57:40;4.30;;;2.08;;
18677;SDS011;9469;51.114;13.914;2023-08-24T11:02:51;2.90;;;2.00;;
18677;SDS011;9469;51.114;13.914;2023-08-24T11:08:02;5.68;;;2.35;;
18677;SDS011;9469;51.114;13.914;2023-08-24T11:13:14;3.75;;;2.30;;
18677;SDS011;9469;51.114;13.914;2023-08-24T11:18:23;3.45;;;1.85;;
18677;SDS011;9469;51.114;13.914;2023-08-24T11:23:30;4.05;;;2.30;;
18677;SDS011;9469;51.114;13.914;2023-08-24T11:28:40;3.20;;;2.22;;
18677;SDS011;9469;51.114;13.914;2023-08-24T11:33:46;4.75;;;2.30;;
18677;SDS011;9469;51.114;13.914;2023-08-24T11:38:52;4.57;;;2.35;;
18677;SDS011;9469;51.114;13.914;2023-08-24T11:44:03;8.98;;;2.70;;
18677;SDS011;9469;51.114;13.914;2023-08-24T11:49:27;3.13;;;2.05;;
18677;SDS011;9469;51.114;13.914;2023-08-24T11:54:33;8.80;;;2.28;;
18677;SDS011;9469;51.114;13.914;2023-08-24T11:59:45;3.67;;;2.40;;
18677;SDS011;9469;51.114;13.914;2023-08-24T12:04:51;8.10;;;2.45;;
18677;SDS011;9469;51.114;13.914;2023-08-24T12:09:59;4.10;;;2.30;;
18677;SDS011;9469;51.114;13.914;2023-08-24T12:15:14;4.45;;;2.15;;
18677;SDS011;9469;51.114;13.914;2023-08-24T12:20:22;5.07;;;2.17;;
18677;SDS011;9469;51.114;13.914;2023-08-24T12:25:28;6.88;;;2.33;;
18677;SDS011;9469;51.114;13.914;2023-08-24T12:30:45;3.00;;;2.17;;
18677;SDS011;9469;51.114;13.914;2023-08-24T12:35:55;4.47;;;2.80;;
18677;SDS011;9469;51.114;13.914;2023-08-24T12:41:00;5.68;;;2.28;;
18677;SDS011;9469;51.114;13.914;2023-08-24T12:46:08;3.83;;;2.10;;
18677;SDS011;9469;51.114;13.914;2023-08-24T12:51:14;3.78;;;2.05;;
18677;SDS011;9469;51.114;13.914;2023-08-24T12:56:19;2.67;;;2.10;;
18677;SDS011;9469;51.114;13.914;2023-08-24T13:01:26;4.38;;;2.22;;
18677;SDS011;9469;51.114;13.914;2023-08-24T13:06:32;4.55;;;2.30;;
18677;SDS011;9469;51.114;13.914;2023-08-24T13:11:37;3.25;;;2.30;;
18677;SDS011;9469;51.114;13.914;2023-08-24T13:16:45;6.57;;;2.70;;
18677;SDS011;9469;51.114;13.914;2023-08-24T13:21:51;4.75;;;2.55;;
18677;SDS011;9469;51.114;13.914;2023-08-24T13:26:57;3.60;;;2.30;;
18677;SDS011;9469;51.114;13.914;2023-08-24T13:32:04;6.20;;;2.40;;
18677;SDS011;9469;51.114;13.914;2023-08-24T13:37:10;2.45;;;2.22;;
18677;SDS011;9469;51.114;13.914;2023-08-24T13:42:17;5.50;;;2.15;;
18677;SDS011;9469;51.114;13.914;2023-08-24T13:47:24;6.32;;;2.67;;
18677;SDS011;9469;51.114;13.914;2023-08-24T13:52:30;2.60;;;2.30;;
18677;SDS011;9469;51.114;13.914;2023-08-24T13:57:35;4.18;;;2.70;;
18677;SDS011;9469;51.114;13.914;2023-08-24T14:02:43;3.90;;;2.70;;
18677;SDS011;9469;51.114;13.914;2023-08-24T14:07:50;7.85;;;3.17;;
18677;SDS011;9469;51.114;13.914;2023-08-24T14:12:56;5.57;;;2.72;;
18677;SDS011;9469;51.114;13.914;2023-08-24T14:18:04;5.70;;;2.78;;
18677;SDS011;9469;51.114;13.914;2023-08-24T14:23:09;4.35;;;2.70;;
18677;SDS011;9469;51.114;13.914;2023-08-24T14:28:21;6.78;;;2.97;;
18677;SDS011;9469;51.114;13.914;2023-08-24T14:33:31;6.97;;;3.08;;
18677;SDS011;9469;51.114;13.914;2023-08-24T14:38:40;5.13;;;3.55;;
18677;SDS011;9469;51.114;13.914;2023-08-24T14:43:45;7.25;;;3.38;;
18677;SDS011;9469;51.114;13.914;2023-08-24T14:48:54;6.57;;;3.45;;
18677;SDS011;9469;51.114;13.914;2023-08-24T14:53:59;6.70;;;3.22;;
18677;SDS011;9469;51.114;13.914;2023-08-24T14:59:04;4.63;;;3.58;;
18677;SDS011;9469;51.114;13.914;2023-08-24T15:04:13;4.32;;;3.15;;
18677;SDS011;9469;51.114;13.914;2023-08-24T15:09:19;4.50;;;3.25;;
18677;SDS011;9469;51.114;13.914;2023-08-24T15:14:29;10.43;;;3.55;;
18677;SDS011;9469;51.114;13.914;2023-08-24T15:19:38;6.63;;;3.28;;
18677;SDS011;9469;51.114;13.914;2023-08-24T15:24:44;9.57;;;3.40;;
18677;SDS011;9469;51.114;13.914;2023-08-24T15:29:49;7.35;;;3.72;;
18677;SDS011;9469;51.114;13.914;2023-08-24T15:35:00;9.10;;;3.55;;
18677;SDS011;9469;51.114;13.914;2023-08-24T15:40:07;7.18;;;3.10;;
18677;SDS011;9469;51.114;13.914;2023-08-24T15:45:13;5.45;;;3.88;;
18677;SDS011;9469;51.114;13.914;2023-08-24T15:50:21;11.27;;;3.30;;
18677;SDS011;9469;51.114;13.914;2023-08-24T15:55:27;10.05;;;3.83;;
18677;SDS011;9469;51.114;13.914;2023-08-24T16:00:33;6.30;;;3.00;;
18677;SDS011;9469;51.114;13.914;2023-08-24T16:05:42;7.00;;;3.72;;
18677;SDS011;9469;51.114;13.914;2023-08-24T16:10:48;6.45;;;3.35;;
18677;SDS011;9469;51.114;13.914;2023-08-24T16:15:54;5.20;;;3.25;;
18677;SDS011;9469;51.114;13.914;2023-08-24T16:21:02;4.82;;;3.28;;
18677;SDS011;9469;51.114;13.914;2023-08-24T16:26:08;4.70;;;2.85;;
18677;SDS011;9469;51.114;13.914;2023-08-24T16:31:13;7.50;;;2.80;;
18677;SDS011;9469;51.114;13.914;2023-08-24T16:36:21;5.18;;;2.90;;
18677;SDS011;9469;51.114;13.914;2023-08-24T16:41:28;6.47;;;3.45;;
18677;SDS011;9469;51.114;13.914;2023-08-24T16:46:35;6.22;;;3.25;;
18677;SDS011;9469;51.114;13.914;2023-08-24T16:51:43;6.53;;;3.08;;
18677;SDS011;9469;51.114;13.914;2023-08-24T16:56:49;5.28;;;3.83;;
18677;SDS011;9469;51.114;13.914;2023-08-24T17:01:54;5.18;;;3.30;;
18677;SDS011;9469;51.114;13.914;2023-08-24T17:07:02;7.28;;;2.97;;
18677;SDS011;9469;51.114;13.914;2023-08-24T17:12:11;5.47;;;2.83;;
18677;SDS011;9469;51.114;13.914;2023-08-24T17:17:16;8.70;;;3.05;;
18677;SDS011;9469;51.114;13.914;2023-08-24T17:22:25;6.07;;;3.13;;
18677;SDS011;9469;51.114;13.914;2023-08-24T17:27:30;7.55;;;3.20;;
18677;SDS011;9469;51.114;13.914;2023-08-24T17:32:37;7.15;;;3.65;;
18677;SDS011;9469;51.114;13.914;2023-08-24T17:37:46;12.27;;;3.72;;
18677;SDS011;9469;51.114;13.914;2023-08-24T17:42:51;10.95;;;3.85;;
18677;SDS011;9469;51.114;13.914;2023-08-24T17:47:56;5.53;;;3.47;;
18677;SDS011;9469;51.114;13.914;2023-08-24T17:53:04;7.03;;;3.80;;
18677;SDS011;9469;51.114;13.914;2023-08-24T17:58:09;5.93;;;3.28;;
18677;SDS011;9469;51.114;13.914;2023-08-24T18:03:14;4.30;;;3.67;;
18677;SDS011;9469;51.114;13.914;2023-08-24T18:08:23;9.30;;;3.35;;
18677;SDS011;9469;51.114;13.914;2023-08-24T18:13:42;8.55;;;4.20;;
18677;SDS011;9469;51.114;13.914;2023-08-24T18:18:49;7.38;;;3.25;;
18677;SDS011;9469;51.114;13.914;2023-08-24T18:23:59;11.05;;;3.88;;
18677;SDS011;9469;51.114;13.914;2023-08-24T18:29:04;8.73;;;3.47;;
18677;SDS011;9469;51.114;13.914;2023-08-24T18:34:16;6.25;;;4.15;;
18677;SDS011;9469;51.114;13.914;2023-08-24T18:39:26;6.82;;;4.15;;
18677;SDS011;9469;51.114;13.914;2023-08-24T18:44:32;4.47;;;3.70;;
18677;SDS011;9469;51.114;13.914;2023-08-24T18:49:37;8.18;;;4.03;;
18677;SDS011;9469;51.114;13.914;2023-08-24T18:54:45;4.38;;;3.70;;
18677;SDS011;9469;51.114;13.914;2023-08-24T18:59:50;12.35;;;4.00;;
18677;SDS011;9469;51.114;13.914;2023-08-24T19:04:58;8.95;;;4.22;;
18677;SDS011;9469;51.114;13.914;2023-08-24T19:10:07;3.47;;;3.17;;
18677;SDS011;9469;51.114;13.914;2023-08-24T19:15:20;5.38;;;3.90;;
18677;SDS011;9469;51.114;13.914;2023-08-24T19:20:28;10.32;;;4.20;;
18677;SDS011;9469;51.114;13.914;2023-08-24T19:25:37;5.00;;;4.10;;
18677;SDS011;9469;51.114;13.914;2023-08-24T19:30:46;6.50;;;4.80;;
18677;SDS011;9469;51.114;13.914;2023-08-24T19:35:55;9.00;;;4.47;;
18677;SDS011;9469;51.114;13.914;2023-08-24T19:41:05;6.60;;;4.47;;
18677;SDS011;9469;51.114;13.914;2023-08-24T19:46:12;5.77;;;4.03;;
18677;SDS011;9469;51.114;13.914;2023-08-24T19:51:18;6.43;;;3.97;;
18677;SDS011;9469;51.114;13.914;2023-08-24T19:56:31;6.80;;;4.17;;
18677;SDS011;9469;51.114;13.914;2023-08-24T20:01:41;6.73;;;3.87;;
18677;SDS011;9469;51.114;13.914;2023-08-24T20:06:46;4.27;;;3.87;;
18677;SDS011;9469;51.114;13.914;2023-08-24T20:11:55;8.00;;;4.60;;
18677;SDS011;9469;51.114;13.914;2023-08-24T20:17:00;8.43;;;5.07;;
18677;SDS011;9469;51.114;13.914;2023-08-24T20:22:05;7.20;;;4.57;;
18677;SDS011;9469;51.114;13.914;2023-08-24T20:27:13;7.50;;;4.83;;
18677;SDS011;9469;51.114;13.914;2023-08-24T20:32:19;6.07;;;4.23;;
18677;SDS011;9469;51.114;13.914;2023-08-24T20:37:25;5.60;;;4.50;;
18677;SDS011;9469;51.114;13.914;2023-08-24T20:42:34;9.37;;;4.30;;
18677;SDS011;9469;51.114;13.914;2023-08-24T20:47:40;6.00;;;3.93;;
18677;SDS011;9469;51.114;13.914;2023-08-24T20:52:46;7.83;;;4.20;;
18677;SDS011;9469;51.114;13.914;2023-08-24T20:57:56;8.30;;;4.77;;
18677;SDS011;9469;51.114;13.914;2023-08-24T21:03:06;9.87;;;4.90;;
18677;SDS011;9469;51.114;13.914;2023-08-24T21:08:12;5.33;;;4.23;;
18677;SDS011;9469;51.114;13.914;2023-08-24T21:13:20;8.77;;;4.37;;
18677;SDS011;9469;51.114;13.914;2023-08-24T21:18:25;6.10;;;3.87;;
18677;SDS011;9469;51.114;13.914;2023-08-24T21:23:31;5.23;;;4.20;;
18677;SDS011;9469;51.114;13.914;2023-08-24T21:28:39;7.53;;;4.30;;
18677;SDS011;9469;51.114;13.914;2023-08-24T21:33:44;6.40;;;4.00;;
18677;SDS011;9469;51.114;13.914;2023-08-24T21:38:51;5.93;;;4.00;;
18677;SDS011;9469;51.114;13.914;2023-08-24T21:43:59;8.20;;;4.63;;
18677;SDS011;9469;51.114;13.914;2023-08-24T21:49:04;7.03;;;4.43;;
18677;SDS011;9469;51.114;13.914;2023-08-24T21:54:10;6.07;;;4.67;;
18677;SDS011;9469;51.114;13.914;2023-08-24T21:59:20;4.90;;;3.60;;
18677;SDS011;9469;51.114;13.914;2023-08-24T22:04:25;6.23;;;3.80;;
18677;SDS011;9469;51.114;13.914;2023-08-24T22:09:30;7.70;;;4.23;;
18677;SDS011;9469;51.114;13.914;2023-08-24T22:14:40;4.87;;;3.80;;
18677;SDS011;9469;51.114;13.914;2023-08-24T22:19:45;6.37;;;3.70;;
18677;SDS011;9469;51.114;13.914;2023-08-24T22:24:50;9.13;;;4.00;;
18677;SDS011;9469;51.114;13.914;2023-08-24T22:29:58;5.30;;;3.77;;
18677;SDS011;9469;51.114;13.914;2023-08-24T22:35:06;6.27;;;3.87;;
18677;SDS011;9469;51.114;13.914;2023-08-24T22:40:14;8.67;;;4.20;;
18677;SDS011;9469;51.114;13.914;2023-08-24T22:45:24;4.83;;;4.30;;
18677;SDS011;9469;51.114;13.914;2023-08-24T22:50:40;10.87;;;3.80;;
18677;SDS011;9469;51.114;13.914;2023-08-24T22:55:46;6.47;;;3.47;;
18677;SDS011;9469;51.114;13.914;2023-08-24T23:00:54;5.10;;;3.30;;
18677;SDS011;9469;51.114;13.914;2023-08-24T23:06:00;5.53;;;3.73;;
18677;SDS011;9469;51.114;13.914;2023-08-24T23:11:06;5.07;;;3.70;;
18677;SDS011;9469;51.114;13.914;2023-08-24T23:16:14;9.60;;;4.37;;
18677;SDS011;9469;51.114;13.914;2023-08-24T23:21:20;11.27;;;4.03;;
18677;SDS011;9469;51.114;13.914;2023-08-24T23:26:25;6.50;;;4.00;;
18677;SDS011;9469;51.114;13.914;2023-08-24T23:31:33;4.37;;;3.30;;
18677;SDS011;9469;51.114;13.914;2023-08-24T23:36:38;7.70;;;3.33;;
18677;SDS011;9469;51.114;13.914;2023-08-24T23:41:44;5.93;;;3.37;;
18677;SDS011;9469;51.114;13.914;2023-08-24T23:46:52;5.23;;;3.87;;
18677;SDS011;9469;51.114;13.914;2023-08-24T23:51:59;7.23;;;3.53;;
18677;SDS011;9469;51.114;13.914;2023-08-24T23:57:04;6.10;;;3.80;;
